sensor_id;sensor_type;location;lat;lon;timestamp;temperature;humidity
21559;DHT22;10940;48.890;8.240;2023-04-24T00:01:39;12.30;99.90
21559;DHT22;10940;48.890;8.240;2023-04-24T00:04:05;12.30;99.90
21559;DHT22;10940;48.890;8.240;2023-04-24T00:06:32;12.30;99.90
21559;DHT22;10940;48.890;8.240;2023-04-24T00:09:03;12.30;99.90
21559;DHT22;10940;48.890;8.240;2023-04-24T00:11:29;12.40;99.90
21559;DHT22;10940;48.890;8.240;2023-04-24T00:13:55;12.50;99.90
21559;DHT22;10940;48.890;8.240;2023-04-24T00:16:21;12.50;99.90
21559;DHT22;10940;48.890;8.240;2023-04-24T00:18:47;12.50;99.90
21559;DHT22;10940;48.890;8.240;2023-04-24T00:21:14;12.50;99.90
21559;DHT22;10940;48.890;8.240;2023-04-24T00:23:40;12.50;99.90
21559;DHT22;10940;48.890;8.240;2023-04-24T00:26:05;12.50;99.90
21559;DHT22;10940;48.890;8.240;2023-04-24T00:28:31;12.40;99.90
21559;DHT22;10940;48.890;8.240;2023-04-24T00:30:57;12.40;99.90
21559;DHT22;10940;48.890;8.240;2023-04-24T00:33:22;12.40;99.90
21559;DHT22;10940;48.890;8.240;2023-04-24T00:35:48;12.40;99.90
21559;DHT22;10940;48.890;8.240;2023-04-24T00:38:13;12.40;99.90
21559;DHT22;10940;48.890;8.240;2023-04-24T00:40:39;12.40;99.90
21559;DHT22;10940;48.890;8.240;2023-04-24T00:43:05;12.40;99.90
21559;DHT22;10940;48.890;8.240;2023-04-24T00:45:31;12.50;99.90
21559;DHT22;10940;48.890;8.240;2023-04-24T00:47:57;12.40;99.90
21559;DHT22;10940;48.890;8.240;2023-04-24T00:50:24;12.40;99.90
21559;DHT22;10940;48.890;8.240;2023-04-24T00:52:49;12.40;99.90
21559;DHT22;10940;48.890;8.240;2023-04-24T00:55:16;12.40;99.90
21559;DHT22;10940;48.890;8.240;2023-04-24T00:57:43;12.30;99.90
21559;DHT22;10940;48.890;8.240;2023-04-24T01:00:09;12.40;99.90
21559;DHT22;10940;48.890;8.240;2023-04-24T01:02:39;12.40;99.90
21559;DHT22;10940;48.890;8.240;2023-04-24T01:05:07;12.30;99.90
21559;DHT22;10940;48.890;8.240;2023-04-24T01:07:34;12.30;99.90
21559;DHT22;10940;48.890;8.240;2023-04-24T01:09:59;12.30;99.90
21559;DHT22;10940;48.890;8.240;2023-04-24T01:12:25;12.30;99.90
21559;DHT22;10940;48.890;8.240;2023-04-24T01:14:51;12.30;99.90
21559;DHT22;10940;48.890;8.240;2023-04-24T01:17:17;12.30;99.90
21559;DHT22;10940;48.890;8.240;2023-04-24T01:19:42;12.30;99.90
21559;DHT22;10940;48.890;8.240;2023-04-24T01:22:14;12.40;99.90
21559;DHT22;10940;48.890;8.240;2023-04-24T01:24:40;12.40;99.90
21559;DHT22;10940;48.890;8.240;2023-04-24T01:27:07;12.40;99.90
21559;DHT22;10940;48.890;8.240;2023-04-24T01:29:34;12.50;99.90
21559;DHT22;10940;48.890;8.240;2023-04-24T01:32:00;12.40;99.90
21559;DHT22;10940;48.890;8.240;2023-04-24T01:34:26;12.50;99.90
21559;DHT22;10940;48.890;8.240;2023-04-24T01:36:51;12.50;99.90
21559;DHT22;10940;48.890;8.240;2023-04-24T01:39:17;12.40;99.90
21559;DHT22;10940;48.890;8.240;2023-04-24T01:41:43;12.40;99.90
21559;DHT22;10940;48.890;8.240;2023-04-24T01:44:08;12.40;99.90
21559;DHT22;10940;48.890;8.240;2023-04-24T01:46:34;12.40;99.90
21559;DHT22;10940;48.890;8.240;2023-04-24T01:49:01;12.30;99.90
21559;DHT22;10940;48.890;8.240;2023-04-24T01:51:27;12.40;99.90
21559;DHT22;10940;48.890;8.240;2023-04-24T01:53:52;12.40;99.90
21559;DHT22;10940;48.890;8.240;2023-04-24T01:56:20;12.30;99.90
21559;DHT22;10940;48.890;8.240;2023-04-24T01:58:46;12.30;99.90
21559;DHT22;10940;48.890;8.240;2023-04-24T02:01:19;12.20;99.90
21559;DHT22;10940;48.890;8.240;2023-04-24T02:03:44;12.20;99.90
21559;DHT22;10940;48.890;8.240;2023-04-24T02:06:10;12.20;99.90
21559;DHT22;10940;48.890;8.240;2023-04-24T02:08:35;12.10;99.90
21559;DHT22;10940;48.890;8.240;2023-04-24T02:11:01;12.10;99.90
21559;DHT22;10940;48.890;8.240;2023-04-24T02:13:27;12.10;99.90
21559;DHT22;10940;48.890;8.240;2023-04-24T02:15:53;12.10;99.90
21559;DHT22;10940;48.890;8.240;2023-04-24T02:18:19;12.10;99.90
21559;DHT22;10940;48.890;8.240;2023-04-24T02:20:45;12.10;99.90
21559;DHT22;10940;48.890;8.240;2023-04-24T02:23:10;12.10;99.90
21559;DHT22;10940;48.890;8.240;2023-04-24T02:25:36;12.10;99.90
21559;DHT22;10940;48.890;8.240;2023-04-24T02:28:02;12.00;99.90
21559;DHT22;10940;48.890;8.240;2023-04-24T02:30:28;12.00;99.90
21559;DHT22;10940;48.890;8.240;2023-04-24T02:32:53;12.00;99.90
21559;DHT22;10940;48.890;8.240;2023-04-24T02:35:19;12.00;99.90
21559;DHT22;10940;48.890;8.240;2023-04-24T02:37:45;11.90;99.90
21559;DHT22;10940;48.890;8.240;2023-04-24T02:40:11;11.90;99.90
21559;DHT22;10940;48.890;8.240;2023-04-24T02:42:37;11.90;99.90
21559;DHT22;10940;48.890;8.240;2023-04-24T02:45:02;11.90;99.90
21559;DHT22;10940;48.890;8.240;2023-04-24T02:47:28;11.90;99.90
21559;DHT22;10940;48.890;8.240;2023-04-24T02:49:54;11.90;99.90
21559;DHT22;10940;48.890;8.240;2023-04-24T02:52:19;11.80;99.90
21559;DHT22;10940;48.890;8.240;2023-04-24T02:54:45;11.70;99.90
21559;DHT22;10940;48.890;8.240;2023-04-24T02:57:10;11.70;99.90
21559;DHT22;10940;48.890;8.240;2023-04-24T02:59:36;11.60;99.90
21559;DHT22;10940;48.890;8.240;2023-04-24T03:02:01;11.40;99.90
21559;DHT22;10940;48.890;8.240;2023-04-24T03:04:27;11.30;99.90
21559;DHT22;10940;48.890;8.240;2023-04-24T03:06:52;11.10;99.90
21559;DHT22;10940;48.890;8.240;2023-04-24T03:09:22;10.90;99.90
21559;DHT22;10940;48.890;8.240;2023-04-24T03:11:49;10.70;99.90
21559;DHT22;10940;48.890;8.240;2023-04-24T03:14:15;10.50;99.90
21559;DHT22;10940;48.890;8.240;2023-04-24T03:16:40;10.30;99.90
21559;DHT22;10940;48.890;8.240;2023-04-24T03:19:06;10.20;99.90
21559;DHT22;10940;48.890;8.240;2023-04-24T03:21:32;10.20;99.90
21559;DHT22;10940;48.890;8.240;2023-04-24T03:23:58;10.20;99.90
21559;DHT22;10940;48.890;8.240;2023-04-24T03:26:23;10.20;99.90
21559;DHT22;10940;48.890;8.240;2023-04-24T03:28:49;10.20;99.90
21559;DHT22;10940;48.890;8.240;2023-04-24T03:31:14;10.30;99.90
21559;DHT22;10940;48.890;8.240;2023-04-24T03:33:41;10.20;99.90
21559;DHT22;10940;48.890;8.240;2023-04-24T03:36:06;10.20;99.90
21559;DHT22;10940;48.890;8.240;2023-04-24T03:38:32;10.30;99.90
21559;DHT22;10940;48.890;8.240;2023-04-24T03:40:58;10.20;99.90
21559;DHT22;10940;48.890;8.240;2023-04-24T03:43:23;10.20;99.90
21559;DHT22;10940;48.890;8.240;2023-04-24T03:45:49;10.20;99.90
21559;DHT22;10940;48.890;8.240;2023-04-24T03:48:14;10.10;99.90
21559;DHT22;10940;48.890;8.240;2023-04-24T03:50:40;10.20;99.90
21559;DHT22;10940;48.890;8.240;2023-04-24T03:53:05;10.10;99.90
21559;DHT22;10940;48.890;8.240;2023-04-24T03:55:31;10.10;99.90
21559;DHT22;10940;48.890;8.240;2023-04-24T03:57:57;10.00;99.90
21559;DHT22;10940;48.890;8.240;2023-04-24T04:00:22;10.00;99.90
21559;DHT22;10940;48.890;8.240;2023-04-24T04:02:48;9.90;99.90
21559;DHT22;10940;48.890;8.240;2023-04-24T04:05:13;9.80;99.90
21559;DHT22;10940;48.890;8.240;2023-04-24T04:07:39;9.90;99.90
21559;DHT22;10940;48.890;8.240;2023-04-24T04:10:05;9.80;99.90
21559;DHT22;10940;48.890;8.240;2023-04-24T04:12:32;9.90;99.90
21559;DHT22;10940;48.890;8.240;2023-04-24T04:14:58;9.90;99.90
21559;DHT22;10940;48.890;8.240;2023-04-24T04:17:23;10.00;99.90
21559;DHT22;10940;48.890;8.240;2023-04-24T04:19:49;10.00;99.90
21559;DHT22;10940;48.890;8.240;2023-04-24T04:22:14;10.00;99.90
21559;DHT22;10940;48.890;8.240;2023-04-24T04:24:40;10.00;99.90
21559;DHT22;10940;48.890;8.240;2023-04-24T04:27:06;10.00;99.90
21559;DHT22;10940;48.890;8.240;2023-04-24T04:29:32;10.00;99.90
21559;DHT22;10940;48.890;8.240;2023-04-24T04:31:58;10.00;99.90
21559;DHT22;10940;48.890;8.240;2023-04-24T04:34:24;10.00;99.90
21559;DHT22;10940;48.890;8.240;2023-04-24T04:36:49;10.10;99.90
21559;DHT22;10940;48.890;8.240;2023-04-24T04:39:15;10.10;99.90
21559;DHT22;10940;48.890;8.240;2023-04-24T04:41:41;10.10;99.90
21559;DHT22;10940;48.890;8.240;2023-04-24T04:44:07;10.10;99.90
21559;DHT22;10940;48.890;8.240;2023-04-24T04:46:34;10.00;99.90
21559;DHT22;10940;48.890;8.240;2023-04-24T04:49:02;10.10;99.90
21559;DHT22;10940;48.890;8.240;2023-04-24T04:51:28;10.00;99.90
21559;DHT22;10940;48.890;8.240;2023-04-24T04:53:54;9.90;99.90
21559;DHT22;10940;48.890;8.240;2023-04-24T04:56:19;10.00;99.90
21559;DHT22;10940;48.890;8.240;2023-04-24T04:58:45;9.90;99.90
21559;DHT22;10940;48.890;8.240;2023-04-24T05:01:10;10.00;99.90
21559;DHT22;10940;48.890;8.240;2023-04-24T05:03:36;10.00;99.90
21559;DHT22;10940;48.890;8.240;2023-04-24T05:06:02;10.00;99.90
21559;DHT22;10940;48.890;8.240;2023-04-24T05:08:27;10.00;99.90
21559;DHT22;10940;48.890;8.240;2023-04-24T05:10:54;10.10;99.90
21559;DHT22;10940;48.890;8.240;2023-04-24T05:13:20;10.10;99.90
21559;DHT22;10940;48.890;8.240;2023-04-24T05:15:46;10.20;99.90
21559;DHT22;10940;48.890;8.240;2023-04-24T05:18:11;10.20;99.90
21559;DHT22;10940;48.890;8.240;2023-04-24T05:20:37;10.20;99.90
21559;DHT22;10940;48.890;8.240;2023-04-24T05:23:02;10.30;99.90
21559;DHT22;10940;48.890;8.240;2023-04-24T05:25:28;10.30;99.90
21559;DHT22;10940;48.890;8.240;2023-04-24T05:27:54;10.30;99.90
21559;DHT22;10940;48.890;8.240;2023-04-24T05:30:19;10.30;99.90
21559;DHT22;10940;48.890;8.240;2023-04-24T05:32:45;10.20;99.90
21559;DHT22;10940;48.890;8.240;2023-04-24T05:35:11;10.20;99.90
21559;DHT22;10940;48.890;8.240;2023-04-24T05:37:37;10.20;99.90
21559;DHT22;10940;48.890;8.240;2023-04-24T05:40:03;10.30;99.90
21559;DHT22;10940;48.890;8.240;2023-04-24T05:42:30;10.30;99.90
21559;DHT22;10940;48.890;8.240;2023-04-24T05:44:56;10.30;99.90
21559;DHT22;10940;48.890;8.240;2023-04-24T05:47:22;10.30;99.90
21559;DHT22;10940;48.890;8.240;2023-04-24T05:49:48;10.30;99.90
21559;DHT22;10940;48.890;8.240;2023-04-24T05:52:13;10.30;99.90
21559;DHT22;10940;48.890;8.240;2023-04-24T05:54:39;10.40;99.90
21559;DHT22;10940;48.890;8.240;2023-04-24T05:57:04;10.30;99.90
21559;DHT22;10940;48.890;8.240;2023-04-24T05:59:34;10.40;99.90
21559;DHT22;10940;48.890;8.240;2023-04-24T06:01:59;10.40;99.90
21559;DHT22;10940;48.890;8.240;2023-04-24T06:04:25;10.40;99.90
21559;DHT22;10940;48.890;8.240;2023-04-24T06:06:51;10.50;99.90
21559;DHT22;10940;48.890;8.240;2023-04-24T06:09:24;10.50;99.90
21559;DHT22;10940;48.890;8.240;2023-04-24T06:11:50;10.50;99.90
21559;DHT22;10940;48.890;8.240;2023-04-24T06:14:19;10.50;99.90
21559;DHT22;10940;48.890;8.240;2023-04-24T06:16:45;10.50;99.90
21559;DHT22;10940;48.890;8.240;2023-04-24T06:19:10;10.50;99.90
21559;DHT22;10940;48.890;8.240;2023-04-24T06:21:36;10.50;99.90
21559;DHT22;10940;48.890;8.240;2023-04-24T06:24:02;10.50;99.90
21559;DHT22;10940;48.890;8.240;2023-04-24T06:26:29;10.50;99.90
21559;DHT22;10940;48.890;8.240;2023-04-24T06:28:54;10.60;99.90
21559;DHT22;10940;48.890;8.240;2023-04-24T06:31:20;10.60;99.90
21559;DHT22;10940;48.890;8.240;2023-04-24T06:33:46;10.70;99.90
21559;DHT22;10940;48.890;8.240;2023-04-24T06:36:12;10.70;99.90
21559;DHT22;10940;48.890;8.240;2023-04-24T06:38:38;10.80;99.90
21559;DHT22;10940;48.890;8.240;2023-04-24T06:41:03;10.90;99.90
21559;DHT22;10940;48.890;8.240;2023-04-24T06:43:33;10.90;99.90
21559;DHT22;10940;48.890;8.240;2023-04-24T06:45:59;10.90;99.90
21559;DHT22;10940;48.890;8.240;2023-04-24T06:48:26;10.90;99.90
21559;DHT22;10940;48.890;8.240;2023-04-24T06:50:52;10.80;99.90
21559;DHT22;10940;48.890;8.240;2023-04-24T06:53:18;10.80;99.90
21559;DHT22;10940;48.890;8.240;2023-04-24T06:55:43;10.90;99.90
21559;DHT22;10940;48.890;8.240;2023-04-24T06:58:11;10.90;99.90
21559;DHT22;10940;48.890;8.240;2023-04-24T07:00:36;10.90;99.90
21559;DHT22;10940;48.890;8.240;2023-04-24T07:03:03;11.00;99.90
21559;DHT22;10940;48.890;8.240;2023-04-24T07:05:30;11.00;99.90
21559;DHT22;10940;48.890;8.240;2023-04-24T07:07:56;11.00;99.90
21559;DHT22;10940;48.890;8.240;2023-04-24T07:10:23;11.10;99.90
21559;DHT22;10940;48.890;8.240;2023-04-24T07:12:49;11.10;99.90
21559;DHT22;10940;48.890;8.240;2023-04-24T07:15:15;11.20;99.90
21559;DHT22;10940;48.890;8.240;2023-04-24T07:17:41;11.20;99.90
21559;DHT22;10940;48.890;8.240;2023-04-24T07:20:10;11.30;99.90
21559;DHT22;10940;48.890;8.240;2023-04-24T07:22:39;11.30;99.90
21559;DHT22;10940;48.890;8.240;2023-04-24T07:25:06;11.40;99.90
21559;DHT22;10940;48.890;8.240;2023-04-24T07:27:32;11.50;99.90
21559;DHT22;10940;48.890;8.240;2023-04-24T07:29:57;11.60;99.90
21559;DHT22;10940;48.890;8.240;2023-04-24T07:32:23;11.80;99.90
21559;DHT22;10940;48.890;8.240;2023-04-24T07:34:48;12.00;99.90
21559;DHT22;10940;48.890;8.240;2023-04-24T07:37:14;12.10;99.90
21559;DHT22;10940;48.890;8.240;2023-04-24T07:39:39;12.10;99.90
21559;DHT22;10940;48.890;8.240;2023-04-24T07:42:05;12.20;99.90
21559;DHT22;10940;48.890;8.240;2023-04-24T07:44:31;12.10;99.90
21559;DHT22;10940;48.890;8.240;2023-04-24T07:46:57;12.00;99.90
21559;DHT22;10940;48.890;8.240;2023-04-24T07:49:23;11.90;99.90
21559;DHT22;10940;48.890;8.240;2023-04-24T07:51:49;11.80;99.90
21559;DHT22;10940;48.890;8.240;2023-04-24T07:54:15;11.80;99.90
21559;DHT22;10940;48.890;8.240;2023-04-24T07:56:41;11.70;99.90
21559;DHT22;10940;48.890;8.240;2023-04-24T07:59:08;11.80;99.90
21559;DHT22;10940;48.890;8.240;2023-04-24T08:01:35;11.80;99.90
21559;DHT22;10940;48.890;8.240;2023-04-24T08:04:01;11.80;99.90
21559;DHT22;10940;48.890;8.240;2023-04-24T08:06:27;11.70;99.90
21559;DHT22;10940;48.890;8.240;2023-04-24T08:08:59;11.70;99.90
21559;DHT22;10940;48.890;8.240;2023-04-24T08:11:25;11.60;99.90
21559;DHT22;10940;48.890;8.240;2023-04-24T08:13:50;11.50;99.90
21559;DHT22;10940;48.890;8.240;2023-04-24T08:16:16;11.20;99.90
21559;DHT22;10940;48.890;8.240;2023-04-24T08:18:42;11.00;99.90
21559;DHT22;10940;48.890;8.240;2023-04-24T08:21:07;10.90;99.90
21559;DHT22;10940;48.890;8.240;2023-04-24T08:23:33;10.90;99.90
21559;DHT22;10940;48.890;8.240;2023-04-24T08:25:59;10.80;99.90
21559;DHT22;10940;48.890;8.240;2023-04-24T08:28:24;10.80;99.90
21559;DHT22;10940;48.890;8.240;2023-04-24T08:30:50;10.80;99.90
21559;DHT22;10940;48.890;8.240;2023-04-24T08:33:23;10.70;99.90
21559;DHT22;10940;48.890;8.240;2023-04-24T08:35:49;10.60;99.90
21559;DHT22;10940;48.890;8.240;2023-04-24T08:38:16;10.60;99.90
21559;DHT22;10940;48.890;8.240;2023-04-24T08:40:42;10.70;99.90
21559;DHT22;10940;48.890;8.240;2023-04-24T08:43:08;10.80;99.90
21559;DHT22;10940;48.890;8.240;2023-04-24T08:45:34;10.90;99.90
21559;DHT22;10940;48.890;8.240;2023-04-24T08:48:00;11.20;99.90
21559;DHT22;10940;48.890;8.240;2023-04-24T08:50:25;11.50;99.90
21559;DHT22;10940;48.890;8.240;2023-04-24T08:52:52;12.00;99.90
21559;DHT22;10940;48.890;8.240;2023-04-24T08:55:24;12.20;99.90
21559;DHT22;10940;48.890;8.240;2023-04-24T08:57:51;12.60;99.90
21559;DHT22;10940;48.890;8.240;2023-04-24T09:00:21;12.70;99.90
21559;DHT22;10940;48.890;8.240;2023-04-24T09:02:49;12.80;99.90
21559;DHT22;10940;48.890;8.240;2023-04-24T09:05:17;12.90;99.90
21559;DHT22;10940;48.890;8.240;2023-04-24T09:07:45;12.90;99.90
21559;DHT22;10940;48.890;8.240;2023-04-24T09:10:15;12.80;99.90
21559;DHT22;10940;48.890;8.240;2023-04-24T09:12:41;13.00;99.90
21559;DHT22;10940;48.890;8.240;2023-04-24T09:15:08;12.90;99.90
21559;DHT22;10940;48.890;8.240;2023-04-24T09:17:34;13.00;99.90
21559;DHT22;10940;48.890;8.240;2023-04-24T09:20:00;12.90;99.90
21559;DHT22;10940;48.890;8.240;2023-04-24T09:22:30;12.90;99.90
21559;DHT22;10940;48.890;8.240;2023-04-24T09:25:07;12.70;99.90
21559;DHT22;10940;48.890;8.240;2023-04-24T09:27:34;12.50;99.90
21559;DHT22;10940;48.890;8.240;2023-04-24T09:30:00;12.50;99.90
21559;DHT22;10940;48.890;8.240;2023-04-24T09:32:26;12.60;99.90
21559;DHT22;10940;48.890;8.240;2023-04-24T09:35:14;12.60;99.90
21559;DHT22;10940;48.890;8.240;2023-04-24T09:40:21;12.60;99.90
21559;DHT22;10940;48.890;8.240;2023-04-24T09:42:55;12.60;99.90
21559;DHT22;10940;48.890;8.240;2023-04-24T09:45:22;12.60;99.90
21559;DHT22;10940;48.890;8.240;2023-04-24T09:47:53;12.50;99.90
21559;DHT22;10940;48.890;8.240;2023-04-24T09:50:20;12.40;99.90
21559;DHT22;10940;48.890;8.240;2023-04-24T09:52:55;12.30;99.90
21559;DHT22;10940;48.890;8.240;2023-04-24T09:55:21;12.20;99.90
21559;DHT22;10940;48.890;8.240;2023-04-24T09:57:51;12.20;99.90
21559;DHT22;10940;48.890;8.240;2023-04-24T10:00:25;12.10;99.90
21559;DHT22;10940;48.890;8.240;2023-04-24T10:03:03;12.10;99.90
21559;DHT22;10940;48.890;8.240;2023-04-24T10:05:31;12.10;99.90
21559;DHT22;10940;48.890;8.240;2023-04-24T10:08:18;12.10;99.90
21559;DHT22;10940;48.890;8.240;2023-04-24T10:10:45;12.20;99.90
21559;DHT22;10940;48.890;8.240;2023-04-24T10:13:13;12.30;99.90
21559;DHT22;10940;48.890;8.240;2023-04-24T10:15:40;12.20;99.90
21559;DHT22;10940;48.890;8.240;2023-04-24T10:18:07;12.30;99.90
21559;DHT22;10940;48.890;8.240;2023-04-24T10:20:35;12.40;99.90
21559;DHT22;10940;48.890;8.240;2023-04-24T10:23:02;12.50;99.90
21559;DHT22;10940;48.890;8.240;2023-04-24T10:25:30;12.60;99.90
21559;DHT22;10940;48.890;8.240;2023-04-24T10:27:56;12.60;99.90
21559;DHT22;10940;48.890;8.240;2023-04-24T10:30:25;12.70;99.90
21559;DHT22;10940;48.890;8.240;2023-04-24T10:32:51;12.60;99.90
21559;DHT22;10940;48.890;8.240;2023-04-24T10:35:18;12.60;99.90
21559;DHT22;10940;48.890;8.240;2023-04-24T10:38:12;12.50;99.90
21559;DHT22;10940;48.890;8.240;2023-04-24T10:40:38;12.60;99.90
21559;DHT22;10940;48.890;8.240;2023-04-24T10:43:08;12.60;99.90
21559;DHT22;10940;48.890;8.240;2023-04-24T10:45:37;12.60;99.90
21559;DHT22;10940;48.890;8.240;2023-04-24T10:48:04;12.60;99.90
21559;DHT22;10940;48.890;8.240;2023-04-24T10:50:53;12.60;99.90
21559;DHT22;10940;48.890;8.240;2023-04-24T10:53:27;12.70;99.90
21559;DHT22;10940;48.890;8.240;2023-04-24T10:56:04;12.60;99.90
21559;DHT22;10940;48.890;8.240;2023-04-24T11:01:02;12.60;99.90
21559;DHT22;10940;48.890;8.240;2023-04-24T11:03:30;12.60;99.90
21559;DHT22;10940;48.890;8.240;2023-04-24T11:05:59;12.60;99.90
21559;DHT22;10940;48.890;8.240;2023-04-24T11:08:30;12.60;99.90
21559;DHT22;10940;48.890;8.240;2023-04-24T11:11:14;12.70;99.90
21559;DHT22;10940;48.890;8.240;2023-04-24T11:16:28;12.80;99.90
21559;DHT22;10940;48.890;8.240;2023-04-24T11:21:58;12.70;99.90
21559;DHT22;10940;48.890;8.240;2023-04-24T11:24:38;12.60;99.90
21559;DHT22;10940;48.890;8.240;2023-04-24T11:29:40;12.60;99.90
21559;DHT22;10940;48.890;8.240;2023-04-24T11:37:46;12.40;99.90
21559;DHT22;10940;48.890;8.240;2023-04-24T11:40:14;12.30;99.90
21559;DHT22;10940;48.890;8.240;2023-04-24T11:42:44;12.20;99.90
21559;DHT22;10940;48.890;8.240;2023-04-24T11:45:10;12.20;99.90
21559;DHT22;10940;48.890;8.240;2023-04-24T11:47:37;12.20;99.90
21559;DHT22;10940;48.890;8.240;2023-04-24T11:50:05;12.20;99.90
21559;DHT22;10940;48.890;8.240;2023-04-24T11:52:31;12.10;99.90
21559;DHT22;10940;48.890;8.240;2023-04-24T11:54:56;12.00;99.90
21559;DHT22;10940;48.890;8.240;2023-04-24T11:57:25;12.00;99.90
21559;DHT22;10940;48.890;8.240;2023-04-24T11:59:53;12.00;99.90
21559;DHT22;10940;48.890;8.240;2023-04-24T12:02:26;12.00;99.90
21559;DHT22;10940;48.890;8.240;2023-04-24T12:04:55;12.00;99.90
21559;DHT22;10940;48.890;8.240;2023-04-24T12:07:22;12.10;99.90
21559;DHT22;10940;48.890;8.240;2023-04-24T12:09:59;12.20;99.90
21559;DHT22;10940;48.890;8.240;2023-04-24T12:12:28;12.20;99.90
21559;DHT22;10940;48.890;8.240;2023-04-24T12:14:56;12.20;99.90
21559;DHT22;10940;48.890;8.240;2023-04-24T12:17:28;12.20;99.90
21559;DHT22;10940;48.890;8.240;2023-04-24T12:20:06;12.20;99.90
21559;DHT22;10940;48.890;8.240;2023-04-24T12:22:53;12.20;99.90
21559;DHT22;10940;48.890;8.240;2023-04-24T12:25:24;12.20;99.90
21559;DHT22;10940;48.890;8.240;2023-04-24T12:30:30;12.50;99.90
21559;DHT22;10940;48.890;8.240;2023-04-24T12:33:00;12.60;99.90
21559;DHT22;10940;48.890;8.240;2023-04-24T12:35:30;12.90;99.90
21559;DHT22;10940;48.890;8.240;2023-04-24T12:38:05;13.20;99.90
21559;DHT22;10940;48.890;8.240;2023-04-24T12:40:31;13.40;99.90
21559;DHT22;10940;48.890;8.240;2023-04-24T12:42:57;13.30;99.90
21559;DHT22;10940;48.890;8.240;2023-04-24T12:45:22;13.50;99.90
21559;DHT22;10940;48.890;8.240;2023-04-24T12:47:50;13.70;99.90
21559;DHT22;10940;48.890;8.240;2023-04-24T12:50:16;14.00;99.90
21559;DHT22;10940;48.890;8.240;2023-04-24T12:52:42;14.40;99.90
21559;DHT22;10940;48.890;8.240;2023-04-24T12:55:09;14.80;99.90
21559;DHT22;10940;48.890;8.240;2023-04-24T12:57:36;15.00;99.90
21559;DHT22;10940;48.890;8.240;2023-04-24T13:00:04;15.00;99.90
21559;DHT22;10940;48.890;8.240;2023-04-24T13:02:30;15.10;99.90
21559;DHT22;10940;48.890;8.240;2023-04-24T13:04:57;15.10;99.90
21559;DHT22;10940;48.890;8.240;2023-04-24T13:07:23;15.00;99.90
21559;DHT22;10940;48.890;8.240;2023-04-24T13:09:50;14.80;99.90
21559;DHT22;10940;48.890;8.240;2023-04-24T13:12:15;14.60;99.90
21559;DHT22;10940;48.890;8.240;2023-04-24T13:14:41;14.60;99.90
21559;DHT22;10940;48.890;8.240;2023-04-24T13:17:07;14.80;99.90
21559;DHT22;10940;48.890;8.240;2023-04-24T13:19:40;14.90;99.90
21559;DHT22;10940;48.890;8.240;2023-04-24T13:22:06;15.10;99.90
21559;DHT22;10940;48.890;8.240;2023-04-24T13:24:32;15.30;99.90
21559;DHT22;10940;48.890;8.240;2023-04-24T13:26:58;15.50;99.90
21559;DHT22;10940;48.890;8.240;2023-04-24T13:29:24;15.50;99.90
21559;DHT22;10940;48.890;8.240;2023-04-24T13:31:50;15.50;99.90
21559;DHT22;10940;48.890;8.240;2023-04-24T13:34:17;15.50;99.90
21559;DHT22;10940;48.890;8.240;2023-04-24T13:36:42;15.40;99.90
21559;DHT22;10940;48.890;8.240;2023-04-24T13:39:08;15.00;99.90
21559;DHT22;10940;48.890;8.240;2023-04-24T13:41:34;14.70;99.90
21559;DHT22;10940;48.890;8.240;2023-04-24T13:44:02;14.50;99.90
21559;DHT22;10940;48.890;8.240;2023-04-24T13:46:27;14.40;99.90
21559;DHT22;10940;48.890;8.240;2023-04-24T13:48:53;14.40;99.90
21559;DHT22;10940;48.890;8.240;2023-04-24T13:51:19;14.40;99.90
21559;DHT22;10940;48.890;8.240;2023-04-24T13:53:44;14.40;99.90
21559;DHT22;10940;48.890;8.240;2023-04-24T13:56:10;14.70;99.90
21559;DHT22;10940;48.890;8.240;2023-04-24T13:58:35;15.10;99.90
21559;DHT22;10940;48.890;8.240;2023-04-24T14:01:02;15.10;99.90
21559;DHT22;10940;48.890;8.240;2023-04-24T14:03:28;14.90;99.90
21559;DHT22;10940;48.890;8.240;2023-04-24T14:05:54;14.50;99.90
21559;DHT22;10940;48.890;8.240;2023-04-24T14:08:20;14.40;99.90
21559;DHT22;10940;48.890;8.240;2023-04-24T14:10:45;14.30;99.90
21559;DHT22;10940;48.890;8.240;2023-04-24T14:13:11;14.30;99.90
21559;DHT22;10940;48.890;8.240;2023-04-24T14:15:37;14.30;99.90
21559;DHT22;10940;48.890;8.240;2023-04-24T14:18:03;14.30;99.90
21559;DHT22;10940;48.890;8.240;2023-04-24T14:20:29;14.40;99.90
21559;DHT22;10940;48.890;8.240;2023-04-24T14:22:54;14.50;99.90
21559;DHT22;10940;48.890;8.240;2023-04-24T14:25:20;14.50;99.90
21559;DHT22;10940;48.890;8.240;2023-04-24T14:27:45;14.60;99.90
21559;DHT22;10940;48.890;8.240;2023-04-24T14:30:12;14.50;99.90
21559;DHT22;10940;48.890;8.240;2023-04-24T14:32:39;14.40;99.90
21559;DHT22;10940;48.890;8.240;2023-04-24T14:35:06;14.40;99.90
21559;DHT22;10940;48.890;8.240;2023-04-24T14:37:32;14.40;99.90
21559;DHT22;10940;48.890;8.240;2023-04-24T14:39:57;14.30;99.90
21559;DHT22;10940;48.890;8.240;2023-04-24T14:42:23;14.20;99.90
21559;DHT22;10940;48.890;8.240;2023-04-24T14:44:48;14.20;99.90
21559;DHT22;10940;48.890;8.240;2023-04-24T14:47:14;14.30;99.90
21559;DHT22;10940;48.890;8.240;2023-04-24T14:49:40;14.40;99.90
21559;DHT22;10940;48.890;8.240;2023-04-24T14:52:06;14.60;99.90
21559;DHT22;10940;48.890;8.240;2023-04-24T14:54:31;14.90;99.90
21559;DHT22;10940;48.890;8.240;2023-04-24T14:56:57;15.20;99.90
21559;DHT22;10940;48.890;8.240;2023-04-24T14:59:22;15.50;99.90
21559;DHT22;10940;48.890;8.240;2023-04-24T15:01:48;15.80;99.90
21559;DHT22;10940;48.890;8.240;2023-04-24T15:04:14;16.10;99.90
21559;DHT22;10940;48.890;8.240;2023-04-24T15:06:40;16.20;99.90
21559;DHT22;10940;48.890;8.240;2023-04-24T15:09:06;16.20;99.90
21559;DHT22;10940;48.890;8.240;2023-04-24T15:11:32;16.20;99.90
21559;DHT22;10940;48.890;8.240;2023-04-24T15:13:57;16.30;99.90
21559;DHT22;10940;48.890;8.240;2023-04-24T15:16:23;16.20;99.90
21559;DHT22;10940;48.890;8.240;2023-04-24T15:18:49;16.30;99.90
21559;DHT22;10940;48.890;8.240;2023-04-24T15:21:15;16.50;99.90
21559;DHT22;10940;48.890;8.240;2023-04-24T15:23:40;16.40;99.90
21559;DHT22;10940;48.890;8.240;2023-04-24T15:26:06;16.30;99.90
21559;DHT22;10940;48.890;8.240;2023-04-24T15:28:31;16.30;99.90
21559;DHT22;10940;48.890;8.240;2023-04-24T15:30:57;16.30;99.90
21559;DHT22;10940;48.890;8.240;2023-04-24T15:33:22;16.20;99.90
21559;DHT22;10940;48.890;8.240;2023-04-24T15:35:48;16.30;99.90
21559;DHT22;10940;48.890;8.240;2023-04-24T15:38:14;16.30;99.90
21559;DHT22;10940;48.890;8.240;2023-04-24T15:40:40;16.10;99.90
21559;DHT22;10940;48.890;8.240;2023-04-24T15:43:05;15.90;99.90
21559;DHT22;10940;48.890;8.240;2023-04-24T15:45:32;15.60;99.90
21559;DHT22;10940;48.890;8.240;2023-04-24T15:47:57;15.50;99.90
21559;DHT22;10940;48.890;8.240;2023-04-24T15:50:23;15.20;99.90